Terminal Aerodrome Forecast
Issued by NWS Duluth, MN

Home | Current Version | Previous Version | Text Only | Print | Product List | Glossary On
Versions: 1 2 3 4 5 6 7 8 9 10 11 12 13 14 15 16 17 18 19 20 21 22 23 24 25 26 27 28 29 30 31 32 33 34 35 36 37 38
000
FTUS43 KDLH 192300 RRA
TAFDLH
TAF
KDLH 192340Z 2000/2024 21010G14KT 4SM BR BKN008 BKN028
     FM200500 22008KT 5SM BR VCTS SCT008 BKN028 OVC060CB
     FM200900 25005KT 5SM BR OVC012
     FM201100 29011KT P6SM BKN015
     FM201600 27013KT P6SM SCT025
     FM202200 27011KT 5SM -TSRA BR SCT024 OVC040CB=

USA.gov is the U.S. government's official web portal to all federal, state and local government web resources and services.